createdAt,value
2023-02-14T00:00:48.165Z,13.90
2023-02-14T00:03:26.703Z,13.80
2023-02-14T00:05:53.546Z,18.90
2023-02-14T00:08:20.165Z,14.30
2023-02-14T00:10:47.169Z,15.60
2023-02-14T00:13:14.112Z,13.60
2023-02-14T00:15:40.893Z,14.10
2023-02-14T00:18:07.998Z,14.20
2023-02-14T00:20:36.346Z,13.80
2023-02-14T00:23:02.977Z,12.80
2023-02-14T00:25:30.073Z,13.60
2023-02-14T00:27:56.827Z,17.40
2023-02-14T00:30:23.541Z,17.40
2023-02-14T00:32:50.430Z,16.80
2023-02-14T00:35:17.252Z,14.90
2023-02-14T00:37:45.513Z,15.40
2023-02-14T00:40:12.704Z,15.60
2023-02-14T00:42:39.582Z,15.80
2023-02-14T00:45:06.629Z,13.10
2023-02-14T00:47:35.461Z,14.60
2023-02-14T00:50:04.356Z,17.90
2023-02-14T00:52:31.128Z,16.00
2023-02-14T00:54:58.417Z,18.80
2023-02-14T00:57:25.374Z,14.40
2023-02-14T00:59:52.064Z,13.60
2023-02-14T01:02:20.619Z,16.30
2023-02-14T01:04:47.634Z,18.30
2023-02-14T01:07:14.448Z,16.60
2023-02-14T01:09:42.300Z,14.60
2023-02-14T01:12:09.056Z,15.30
2023-02-14T01:14:35.755Z,14.90
2023-02-14T01:17:02.806Z,15.50
2023-02-14T01:19:29.742Z,14.30
2023-02-14T01:21:56.454Z,15.90
2023-02-14T01:24:24.671Z,16.40
2023-02-14T01:26:51.697Z,16.20
2023-02-14T01:29:18.384Z,16.70
2023-02-14T01:31:47.844Z,14.70
2023-02-14T01:34:14.676Z,15.90
2023-02-14T01:36:41.516Z,15.00
2023-02-14T01:39:13.260Z,15.00
2023-02-14T01:41:42.609Z,15.80
2023-02-14T01:44:16.271Z,13.10
2023-02-14T01:46:46.412Z,12.80
2023-02-14T01:49:21.016Z,13.50
2023-02-14T01:51:54.815Z,13.30
2023-02-14T01:54:26.259Z,15.20
2023-02-14T01:56:58.065Z,15.30
2023-02-14T01:59:31.555Z,13.70
2023-02-14T02:05:57.439Z,14.30
2023-02-14T02:08:25.444Z,14.90
2023-02-14T02:10:52.119Z,15.30
2023-02-14T02:13:22.193Z,13.40
2023-02-14T02:16:16.288Z,15.00
2023-02-14T02:19:19.423Z,14.50
2023-02-14T02:22:05.199Z,13.80
2023-02-14T02:24:32.394Z,15.30
2023-02-14T02:27:11.315Z,13.40
2023-02-14T02:30:18.922Z,16.40
2023-02-14T02:32:45.801Z,17.60
2023-02-14T02:35:37.327Z,18.00
2023-02-14T02:38:11.516Z,18.40
2023-02-14T02:40:45.209Z,13.00
2023-02-14T02:43:25.131Z,15.60
2023-02-14T02:46:22.195Z,19.50
2023-02-14T02:48:58.150Z,19.50
2023-02-14T02:52:06.072Z,18.30
2023-02-14T02:54:39.641Z,18.50
2023-02-14T02:57:13.109Z,13.80
2023-02-14T02:59:44.531Z,15.50
2023-02-14T03:02:28.882Z,14.90
2023-02-14T03:05:01.603Z,15.50
2023-02-14T03:07:36.188Z,20.30
2023-02-14T03:10:15.977Z,17.90
2023-02-14T03:12:54.977Z,21.60
2023-02-14T03:15:38.993Z,18.60
2023-02-14T03:18:37.992Z,16.30
2023-02-14T03:21:34.568Z,19.20
2023-02-14T03:24:11.239Z,17.90
2023-02-14T03:27:14.678Z,19.10
2023-02-14T03:30:17.236Z,21.00
2023-02-14T03:33:15.718Z,20.70
2023-02-14T03:36:03.568Z,19.60
2023-02-14T03:38:33.551Z,18.80
2023-02-14T03:41:05.248Z,17.70
2023-02-14T03:43:41.692Z,17.20
2023-02-14T03:46:14.893Z,17.30
2023-02-14T03:48:42.475Z,19.20
2023-02-14T03:51:13.420Z,17.20
2023-02-14T03:53:47.592Z,21.40
2023-02-14T03:56:39.540Z,21.70
2023-02-14T03:59:13.016Z,20.60
2023-02-14T04:01:59.495Z,17.30
2023-02-14T04:04:31.788Z,16.60
2023-02-14T04:06:58.678Z,18.80
2023-02-14T04:09:25.309Z,18.40
2023-02-14T04:11:52.287Z,18.40
2023-02-14T04:14:19.308Z,20.20
2023-02-14T04:17:04.854Z,22.20
2023-02-14T04:19:31.893Z,19.10
2023-02-14T04:21:58.481Z,17.50
2023-02-14T04:24:25.385Z,21.50
2023-02-14T04:27:09.293Z,21.00
2023-02-14T04:29:38.819Z,20.10
2023-02-14T04:32:07.519Z,21.60
2023-02-14T04:34:34.697Z,24.10
2023-02-14T04:37:01.826Z,26.40
2023-02-14T04:39:29.148Z,27.90
2023-02-14T04:41:55.917Z,23.90
2023-02-14T04:44:22.907Z,26.80
2023-02-14T04:46:49.919Z,24.30
2023-02-14T04:49:16.853Z,24.20
2023-02-14T04:51:43.846Z,22.70
2023-02-14T04:54:11.313Z,23.90
2023-02-14T04:56:38.105Z,19.50
2023-02-14T04:59:05.106Z,17.30
2023-02-14T05:01:32.313Z,20.00
2023-02-14T05:03:59.042Z,16.90
2023-02-14T05:06:26.073Z,20.80
2023-02-14T05:08:53.108Z,20.90
2023-02-14T05:11:19.761Z,16.20
2023-02-14T05:13:46.552Z,17.50
2023-02-14T05:16:13.647Z,19.30
2023-02-14T05:18:40.458Z,19.10
2023-02-14T05:21:07.520Z,17.30
2023-02-14T05:23:34.497Z,17.00
2023-02-14T05:26:01.159Z,20.80
2023-02-14T05:28:27.995Z,18.10
2023-02-14T05:30:56.325Z,17.10
2023-02-14T05:33:23.901Z,20.80
2023-02-14T05:35:50.788Z,18.80
2023-02-14T05:38:18.555Z,19.80
2023-02-14T05:40:45.884Z,20.30
2023-02-14T05:43:12.761Z,16.00
2023-02-14T05:45:39.742Z,24.50
2023-02-14T05:48:06.521Z,20.70
2023-02-14T05:50:33.361Z,19.30
2023-02-14T05:53:01.402Z,20.60
2023-02-14T05:55:28.215Z,19.60
2023-02-14T05:57:54.989Z,19.60
2023-02-14T06:00:23.430Z,19.30
2023-02-14T06:02:50.374Z,18.60
2023-02-14T06:05:17.809Z,18.80
2023-02-14T06:07:49.885Z,20.00
2023-02-14T06:10:17.848Z,31.00
2023-02-14T06:12:45.103Z,22.30
2023-02-14T06:15:12.097Z,22.30
2023-02-14T06:17:38.715Z,23.70
2023-02-14T06:20:06.980Z,21.60
2023-02-14T06:22:33.987Z,30.40
2023-02-14T06:25:00.624Z,24.70
2023-02-14T06:27:30.290Z,23.00
2023-02-14T06:29:57.382Z,26.00
2023-02-14T06:32:24.109Z,24.20
2023-02-14T06:34:50.804Z,25.40
2023-02-14T06:37:19.448Z,18.90
2023-02-14T06:39:46.197Z,18.20
2023-02-14T06:42:13.054Z,23.40
2023-02-14T06:44:39.942Z,15.80
2023-02-14T06:47:07.883Z,16.10
2023-02-14T06:49:34.681Z,17.90
2023-02-14T06:52:03.420Z,22.10
2023-02-14T06:54:30.159Z,23.50
2023-02-14T06:56:56.988Z,21.30
2023-02-14T06:59:24.030Z,17.50
2023-02-14T07:01:50.898Z,19.10
2023-02-14T07:04:18.247Z,17.50
2023-02-14T07:06:45.874Z,22.00
2023-02-14T07:09:17.112Z,20.00
2023-02-14T07:11:44.940Z,20.40
2023-02-14T07:14:12.746Z,18.80
2023-02-14T07:16:39.643Z,18.80
2023-02-14T07:19:06.377Z,21.00
2023-02-14T07:21:33.409Z,22.90
2023-02-14T07:24:00.082Z,17.80
2023-02-14T07:26:27.126Z,20.20
2023-02-14T07:28:54.135Z,23.60
2023-02-14T07:31:22.733Z,17.20
2023-02-14T07:33:52.492Z,28.90
2023-02-14T07:36:19.667Z,26.90
2023-02-14T07:38:46.262Z,22.90
2023-02-14T07:41:13.156Z,21.20
2023-02-14T07:43:40.228Z,19.20
2023-02-14T07:46:07.823Z,18.80
2023-02-14T07:48:34.908Z,16.80
2023-02-14T07:51:02.823Z,16.60
2023-02-14T07:53:30.017Z,16.50
2023-02-14T07:55:57.044Z,21.30
2023-02-14T07:58:23.901Z,21.20
2023-02-14T08:00:50.632Z,22.90
2023-02-14T08:03:18.026Z,18.60
2023-02-14T08:05:56.288Z,21.10
2023-02-14T08:08:25.430Z,22.10
2023-02-14T08:10:55.502Z,16.60
2023-02-14T08:13:22.439Z,16.20
2023-02-14T08:16:04.254Z,20.10
2023-02-14T08:18:36.486Z,20.90
2023-02-14T08:21:06.088Z,16.60
2023-02-14T08:23:33.564Z,16.70
2023-02-14T08:26:00.451Z,24.20
2023-02-14T08:28:28.631Z,20.80
2023-02-14T08:30:56.422Z,23.10
2023-02-14T08:33:23.213Z,20.90
2023-02-14T08:35:51.365Z,18.50
2023-02-14T08:38:18.427Z,18.80
2023-02-14T08:40:45.240Z,15.80
2023-02-14T08:43:13.014Z,21.70
2023-02-14T08:45:40.368Z,15.00
2023-02-14T08:48:09.957Z,14.80
2023-02-14T08:50:38.112Z,15.00
2023-02-14T08:53:11.893Z,14.10
2023-02-14T08:55:39.328Z,17.30
2023-02-14T08:58:06.768Z,17.60
2023-02-14T09:00:34.006Z,18.50
2023-02-14T09:03:00.772Z,23.70
2023-02-14T09:05:27.865Z,18.20
2023-02-14T09:07:57.853Z,16.30
2023-02-14T09:10:25.277Z,19.60
2023-02-14T09:12:52.192Z,16.10
2023-02-14T09:15:19.331Z,14.90
2023-02-14T09:17:46.985Z,34.70
2023-02-14T09:20:15.029Z,53.30
2023-02-14T09:22:42.886Z,20.20
2023-02-14T09:25:10.252Z,16.40
2023-02-14T09:27:37.101Z,15.30
2023-02-14T09:30:06.247Z,17.40
2023-02-14T09:32:33.357Z,19.00
2023-02-14T09:35:00.415Z,16.10
2023-02-14T09:37:46.260Z,14.80
2023-02-14T09:40:16.365Z,19.00
2023-02-14T09:42:55.776Z,14.20
2023-02-14T09:45:25.952Z,13.40
2023-02-14T09:48:17.570Z,15.10
2023-02-14T09:51:06.537Z,14.00
2023-02-14T09:53:38.456Z,13.10
2023-02-14T09:56:24.558Z,17.20
2023-02-14T09:58:56.500Z,23.00
2023-02-14T10:01:28.723Z,19.40
2023-02-14T10:04:22.000Z,18.20
2023-02-14T10:07:13.888Z,17.20
2023-02-14T10:10:12.141Z,16.30
2023-02-14T10:12:41.498Z,15.90
2023-02-14T10:15:17.996Z,17.00
2023-02-14T10:17:50.812Z,15.80
2023-02-14T10:20:42.819Z,16.50
2023-02-14T10:23:40.575Z,15.10
2023-02-14T10:26:25.368Z,18.10
2023-02-14T10:28:53.632Z,14.80
2023-02-14T10:31:41.827Z,15.10
2023-02-14T10:34:17.416Z,14.40
2023-02-14T10:37:08.294Z,17.20
2023-02-14T10:39:53.220Z,16.20
2023-02-14T10:42:48.075Z,15.40
2023-02-14T10:45:25.508Z,14.80
2023-02-14T10:48:24.306Z,15.60
2023-02-14T10:50:58.790Z,13.20
2023-02-14T10:54:04.999Z,15.00
2023-02-14T10:56:41.063Z,19.40
2023-02-14T10:59:21.506Z,15.90
2023-02-14T11:01:51.630Z,17.40
2023-02-14T11:04:20.996Z,15.90
2023-02-14T11:06:49.768Z,14.30
2023-02-14T11:09:17.908Z,15.60
2023-02-14T11:11:54.023Z,16.70
2023-02-14T11:14:31.658Z,14.40
2023-02-14T11:17:00.407Z,13.90
2023-02-14T11:19:28.830Z,15.80
2023-02-14T11:21:58.226Z,13.60
2023-02-14T11:24:33.683Z,15.50
2023-02-14T11:27:13.982Z,14.10
2023-02-14T11:29:40.819Z,12.60
2023-02-14T11:32:07.910Z,15.00
2023-02-14T11:34:39.416Z,20.90
2023-02-14T11:37:20.012Z,17.30
2023-02-14T11:39:46.946Z,16.10
2023-02-14T11:42:32.609Z,15.70
2023-02-14T11:44:59.317Z,15.90
2023-02-14T11:47:29.313Z,14.40
2023-02-14T11:50:05.487Z,16.80
2023-02-14T11:52:39.715Z,19.30
2023-02-14T11:55:06.687Z,14.60
2023-02-14T11:57:37.211Z,14.70
2023-02-14T12:00:16.321Z,16.20
2023-02-14T12:02:46.653Z,14.30
2023-02-14T12:05:30.140Z,13.00
2023-02-14T12:08:01.525Z,12.80
2023-02-14T12:10:30.377Z,9.40
2023-02-14T12:13:19.297Z,14.00
2023-02-14T12:15:46.149Z,25.30
2023-02-14T12:18:22.153Z,19.60
2023-02-14T12:20:48.840Z,17.50
2023-02-14T12:23:36.240Z,12.80
2023-02-14T12:26:14.632Z,17.30
2023-02-14T12:28:49.631Z,16.20
2023-02-14T12:31:16.734Z,13.30
2023-02-14T12:33:46.226Z,21.70
2023-02-14T12:36:32.358Z,17.70
2023-02-14T12:39:15.976Z,21.80
2023-02-14T12:41:51.748Z,18.20
2023-02-14T12:44:34.125Z,12.60
2023-02-14T12:47:19.309Z,13.70
2023-02-14T12:50:01.440Z,9.60
2023-02-14T12:52:28.082Z,15.30
2023-02-14T12:55:35.566Z,13.30
2023-02-14T12:58:11.684Z,15.40
2023-02-14T13:01:06.530Z,23.00
2023-02-14T13:03:51.970Z,14.90
2023-02-14T13:06:29.108Z,21.70
2023-02-14T13:09:23.896Z,18.40
2023-02-14T13:12:15.330Z,16.20
2023-02-14T13:17:43.966Z,11.40
2023-02-14T13:20:49.983Z,14.40
2023-02-14T13:23:23.919Z,12.30
2023-02-14T13:26:05.809Z,13.40
2023-02-14T13:28:35.414Z,12.20
2023-02-14T13:31:02.588Z,12.40
2023-02-14T13:33:35.982Z,11.50
2023-02-14T13:36:07.126Z,14.80
2023-02-14T13:38:42.527Z,14.30
2023-02-14T13:41:10.748Z,25.30
2023-02-14T13:44:00.981Z,21.60
2023-02-14T13:46:34.506Z,60.70
2023-02-14T13:49:04.778Z,22.10
2023-02-14T13:51:44.991Z,13.90
2023-02-14T13:54:34.169Z,14.90
2023-02-14T13:57:38.069Z,18.20
2023-02-14T14:00:17.219Z,18.60
2023-02-14T14:02:51.581Z,19.60
2023-02-14T14:05:47.170Z,16.90
2023-02-14T14:08:20.316Z,19.90
2023-02-14T14:10:48.973Z,17.30
2023-02-14T14:13:40.498Z,17.60
2023-02-14T14:16:27.783Z,24.90
2023-02-14T14:19:20.674Z,32.90
2023-02-14T14:22:20.435Z,34.40
2023-02-14T14:24:58.749Z,32.10
2023-02-14T14:27:31.514Z,26.10
2023-02-14T14:30:00.772Z,17.90
2023-02-14T14:32:33.739Z,28.70
2023-02-14T14:35:03.651Z,29.10
2023-02-14T14:37:33.168Z,27.00
2023-02-14T14:40:05.762Z,15.00
2023-02-14T14:42:39.428Z,21.10
2023-02-14T14:45:20.302Z,17.70
2023-02-14T14:48:20.458Z,25.20
2023-02-14T14:50:49.817Z,23.40
2023-02-14T14:53:31.617Z,27.60
2023-02-14T14:55:59.128Z,17.10
2023-02-14T14:58:30.967Z,15.80
2023-02-14T15:00:58.116Z,17.10
2023-02-14T15:03:27.758Z,16.10
2023-02-14T15:06:15.169Z,22.10
2023-02-14T15:08:42.709Z,23.50
2023-02-14T15:11:38.179Z,29.10
2023-02-14T15:14:09.749Z,36.20
2023-02-14T15:16:47.934Z,28.70
2023-02-14T15:19:53.519Z,38.80
2023-02-14T15:22:25.595Z,21.90
2023-02-14T15:24:52.924Z,21.70
2023-02-14T15:27:22.701Z,18.90
2023-02-14T15:29:58.302Z,23.90
2023-02-14T15:32:29.790Z,34.40
2023-02-14T15:37:24.666Z,47.50
2023-02-14T15:39:57.361Z,29.90
2023-02-14T15:42:28.820Z,25.20
2023-02-14T15:45:24.881Z,27.70
2023-02-14T15:47:54.735Z,21.90
2023-02-14T15:50:33.622Z,21.90
2023-02-14T15:53:18.550Z,28.80
2023-02-14T15:55:50.910Z,115.50
2023-02-14T15:58:29.022Z,23.50
2023-02-14T16:00:56.095Z,31.40
2023-02-14T16:03:28.409Z,34.80
2023-02-14T16:05:56.011Z,26.00
2023-02-14T16:08:30.729Z,25.50
2023-02-14T16:11:25.862Z,27.30
2023-02-14T16:13:52.860Z,33.40
2023-02-14T16:16:19.468Z,29.90
2023-02-14T16:18:49.009Z,33.60
2023-02-14T16:21:19.803Z,29.90
2023-02-14T16:24:07.398Z,36.20
2023-02-14T16:26:37.833Z,31.20
2023-02-14T16:29:14.094Z,26.60
2023-02-14T16:32:12.063Z,31.20
2023-02-14T16:34:34.115Z,28.60
2023-02-14T16:37:25.532Z,30.00
2023-02-14T16:39:53.945Z,24.60
2023-02-14T16:42:20.719Z,22.40
2023-02-14T16:44:47.707Z,25.80
2023-02-14T16:47:16.616Z,25.70
2023-02-14T16:49:43.806Z,27.10
2023-02-14T16:52:15.700Z,28.90
2023-02-14T16:54:42.401Z,23.00
2023-02-14T16:57:17.703Z,27.00
2023-02-14T16:59:44.473Z,23.80
2023-02-14T17:02:12.761Z,25.20
2023-02-14T17:04:39.400Z,26.30
2023-02-14T17:07:07.037Z,27.70
2023-02-14T17:09:39.464Z,25.10
2023-02-14T17:12:15.825Z,31.30
2023-02-14T17:14:47.168Z,26.70
2023-02-14T17:17:15.122Z,24.20
2023-02-14T17:19:42.472Z,23.30
2023-02-14T17:22:12.852Z,28.20
2023-02-14T17:24:40.108Z,39.50
2023-02-14T17:27:07.868Z,27.50
2023-02-14T17:29:35.084Z,31.00
2023-02-14T17:32:01.897Z,40.80
2023-02-14T17:34:32.952Z,33.90
2023-02-14T17:39:26.271Z,31.20
2023-02-14T17:41:52.951Z,28.70
2023-02-14T17:44:20.329Z,23.90
2023-02-14T17:46:47.165Z,30.60
2023-02-14T17:49:13.988Z,27.70
2023-02-14T17:51:40.838Z,26.20
2023-02-14T17:54:07.624Z,20.30
2023-02-14T17:56:34.228Z,25.00
2023-02-14T17:59:00.958Z,27.40
2023-02-14T18:01:30.784Z,35.50
2023-02-14T18:03:57.469Z,28.90
2023-02-14T18:06:25.954Z,26.90
2023-02-14T18:08:56.042Z,26.10
2023-02-14T18:11:25.409Z,26.40
2023-02-14T18:13:54.525Z,31.80
2023-02-14T18:16:21.408Z,37.60
2023-02-14T18:18:48.182Z,26.30
2023-02-14T18:21:18.214Z,30.30
2023-02-14T18:23:45.126Z,27.90
2023-02-14T18:26:14.562Z,33.40
2023-02-14T18:28:41.875Z,28.40
2023-02-14T18:31:14.170Z,29.20
2023-02-14T18:33:41.156Z,25.40
2023-02-14T18:36:11.596Z,21.20
2023-02-14T18:38:39.791Z,31.80
2023-02-14T18:41:08.760Z,27.30
2023-02-14T18:43:36.270Z,26.40
2023-02-14T18:46:19.342Z,30.60
2023-02-14T18:48:46.652Z,32.90
2023-02-14T18:51:16.480Z,27.50
2023-02-14T18:53:44.781Z,26.50
2023-02-14T18:56:14.334Z,22.90
2023-02-14T18:58:43.254Z,20.80
2023-02-14T19:01:18.650Z,22.70
2023-02-14T19:03:45.485Z,23.50
2023-02-14T19:06:12.564Z,24.20
2023-02-14T19:08:40.994Z,31.10
2023-02-14T19:11:14.260Z,23.70
2023-02-14T19:13:45.288Z,54.40
2023-02-14T19:18:40.570Z,38.20
2023-02-14T19:21:22.344Z,44.50
2023-02-14T19:23:49.664Z,39.10
2023-02-14T19:26:20.961Z,27.80
2023-02-14T19:28:49.420Z,51.50
2023-02-14T19:31:16.449Z,57.30
2023-02-14T19:33:45.490Z,44.70
2023-02-14T19:36:15.362Z,37.80
2023-02-14T19:38:43.714Z,41.80
2023-02-14T19:41:25.719Z,56.70
2023-02-14T19:43:56.405Z,40.20
2023-02-14T19:46:24.293Z,30.70
2023-02-14T19:48:51.467Z,27.70
2023-02-14T19:51:33.372Z,28.80
2023-02-14T19:54:02.750Z,30.50
2023-02-14T19:56:32.337Z,29.10
2023-02-14T19:58:59.782Z,29.90
2023-02-14T20:01:32.940Z,35.00
2023-02-14T20:04:00.617Z,30.60
2023-02-14T20:06:30.983Z,27.40
2023-02-14T20:08:57.893Z,23.90
2023-02-14T20:11:41.703Z,28.80
2023-02-14T20:14:09.072Z,26.70
2023-02-14T20:16:36.432Z,24.20
2023-02-14T20:19:07.496Z,23.80
2023-02-14T20:24:02.391Z,26.00
2023-02-14T20:26:31.026Z,22.60
2023-02-14T20:28:59.394Z,26.00
2023-02-14T20:31:26.299Z,33.80
2023-02-14T20:33:54.436Z,25.90
2023-02-14T20:36:21.340Z,27.90
2023-02-14T20:38:53.289Z,23.60
2023-02-14T20:41:19.945Z,24.90
2023-02-14T20:43:46.917Z,28.70
2023-02-14T20:46:13.865Z,30.00
2023-02-14T20:48:40.569Z,30.50
2023-02-14T20:51:16.940Z,31.00
2023-02-14T20:53:45.140Z,28.60
2023-02-14T20:56:13.197Z,29.20
2023-02-14T20:58:40.500Z,31.80
2023-02-14T21:01:09.394Z,26.10
2023-02-14T21:03:36.954Z,27.90
2023-02-14T21:06:06.012Z,31.80
2023-02-14T21:08:33.004Z,32.20
2023-02-14T21:11:00.145Z,36.10
2023-02-14T21:13:27.349Z,42.10
2023-02-14T21:15:54.184Z,46.40
2023-02-14T21:18:21.129Z,38.30
2023-02-14T21:20:47.877Z,33.60
2023-02-14T21:23:14.726Z,30.10
2023-02-14T21:25:41.519Z,26.90
2023-02-14T21:28:08.383Z,29.30
2023-02-14T21:30:35.116Z,40.40
2023-02-14T21:33:01.784Z,29.10
2023-02-14T21:35:28.747Z,31.70
2023-02-14T21:37:55.678Z,30.70
2023-02-14T21:40:23.693Z,30.10
2023-02-14T21:42:51.484Z,27.20
2023-02-14T21:45:37.040Z,29.80
2023-02-14T21:48:23.262Z,33.50
2023-02-14T21:50:50.064Z,33.60
2023-02-14T21:53:17.742Z,34.60
2023-02-14T21:55:45.550Z,36.00
2023-02-14T21:58:12.651Z,34.60
2023-02-14T22:00:39.416Z,33.90
2023-02-14T22:03:06.129Z,33.60
2023-02-14T22:05:32.917Z,32.00
2023-02-14T22:08:00.234Z,25.90
2023-02-14T22:10:27.389Z,26.40
2023-02-14T22:12:54.413Z,32.00
2023-02-14T22:15:21.187Z,34.30
2023-02-14T22:17:47.871Z,54.50
2023-02-14T22:20:15.409Z,49.20
2023-02-14T22:22:42.131Z,34.60
2023-02-14T22:25:09.006Z,33.80
2023-02-14T22:27:39.533Z,36.00
2023-02-14T22:30:07.321Z,31.60
2023-02-14T22:32:34.062Z,33.70
2023-02-14T22:35:00.977Z,31.00
2023-02-14T22:37:27.699Z,28.90
2023-02-14T22:39:54.539Z,23.40
2023-02-14T22:42:21.400Z,25.10
2023-02-14T22:44:48.182Z,22.20
2023-02-14T22:47:15.021Z,26.50
2023-02-14T22:49:41.722Z,25.20
2023-02-14T22:52:08.491Z,35.50
2023-02-14T22:54:35.191Z,38.00
2023-02-14T22:57:02.165Z,42.30
2023-02-14T22:59:31.489Z,45.10
2023-02-14T23:01:59.394Z,33.10
2023-02-14T23:04:28.961Z,33.40
2023-02-14T23:06:56.089Z,29.70
2023-02-14T23:09:24.215Z,23.10
2023-02-14T23:11:51.469Z,21.50
2023-02-14T23:14:37.693Z,21.80
2023-02-14T23:17:23.629Z,18.80
2023-02-14T23:20:09.333Z,22.70
2023-02-14T23:22:40.375Z,21.20
2023-02-14T23:25:11.195Z,22.10
2023-02-14T23:30:09.958Z,18.70
2023-02-14T23:32:36.987Z,18.10
2023-02-14T23:35:04.892Z,17.70
2023-02-14T23:37:31.839Z,18.40
2023-02-14T23:39:58.966Z,17.30
2023-02-14T23:42:25.881Z,17.40
2023-02-14T23:44:52.628Z,19.40
2023-02-14T23:47:19.598Z,20.00
2023-02-14T23:49:46.801Z,18.70
2023-02-14T23:52:13.623Z,14.70
2023-02-14T23:54:41.717Z,27.60
2023-02-14T23:57:08.609Z,23.10
2023-02-14T23:59:35.744Z,17.00
